Terminal Aerodrome Forecast
Issued by NWS

Home | Current Version | Previous Version | Text Only | Print | Product List | Glossary On
Versions: 1 2 3 4 5 6 7 8 9 10 11 12 13
000
FTUS45 KRIW 021722
TAFCOD
TAF
KCOD 021722Z 0218/0318 VRB05KT P6SM BKN250
     FM021930 02010KT P6SM SCT080 BKN250
     FM030500 22006KT P6SM SCT250
     FM031700 12006KT P6SM SKC
      AMD LTD TO CLD VIS AND WIND=

USA.gov is the U.S. government's official web portal to all federal, state and local government web resources and services.